Time;durP1;ratioP1;P1;durP2;ratioP2;P2;SDS_P1;SDS_P2;PMS_P1;PMS_P2;Temp;Humidity;BMP_temperature;BMP_pressure;BME280_temperature;BME280_humidity;BME280_pressure;Samples;Min_cycle;Max_cycle;Signal;HPM_P1;HPM_P2
2022/04/24 00:02:06;;;;;;;12.67;6.53;;;;;;;16.33;75.50;98972.09;5012307;28;20202;-71
2022/04/24 00:04:33;;;;;;;14.30;6.50;;;;;;;16.29;76.21;98969.06;5012313;28;20749;-71
2022/04/24 00:07:00;;;;;;;10.97;6.53;;;;;;;16.24;76.48;98978.88;5012496;28;20231;-71
2022/04/24 00:09:28;;;;;;;11.57;6.10;;;;;;;16.21;76.73;98979.41;5012232;28;20199;-71
2022/04/24 00:11:55;;;;;;;11.27;6.40;;;;;;;16.21;77.01;98979.41;5012774;28;20197;-71
2022/04/24 00:14:22;;;;;;;7.10;5.77;;;;;;;16.19;76.66;98970.78;5012191;28;20739;-70
2022/04/24 00:16:48;;;;;;;9.47;6.83;;;;;;;16.13;76.65;98971.78;5012596;28;20237;-71
2022/04/24 00:19:18;;;;;;;12.90;6.70;;;;;;;16.18;76.27;98974.53;5012124;28;20194;-71
2022/04/24 00:21:45;;;;;;;16.83;7.30;;;;;;;16.17;76.96;98984.41;5012383;28;20252;-71
2022/04/24 00:24:12;;;;;;;13.03;5.93;;;;;;;16.18;76.79;98979.88;5012392;28;20211;-71
2022/04/24 00:26:40;;;;;;;10.50;5.50;;;;;;;16.16;75.63;98982.81;5011796;28;20682;-70
2022/04/24 00:29:07;;;;;;;6.40;5.73;;;;;;;16.14;75.13;98981.41;5012489;28;20255;-70
2022/04/24 00:31:34;;;;;;;11.97;5.13;;;;;;;16.10;74.85;98980.28;5011894;28;20630;-70
2022/04/24 00:34:00;;;;;;;6.47;4.90;;;;;;;16.07;74.12;98978.09;5011963;28;20264;-69
2022/04/24 00:36:27;;;;;;;7.73;5.13;;;;;;;16.05;73.75;98977.53;5011890;28;20765;-69
2022/04/24 00:38:54;;;;;;;5.70;4.60;;;;;;;16.06;74.19;98979.16;5011898;28;20189;-70
2022/04/24 00:41:20;;;;;;;5.30;4.20;;;;;;;16.05;73.76;98982.88;5011942;28;20193;-70
2022/04/24 00:43:53;;;;;;;9.00;4.47;;;;;;;16.07;73.67;98983.44;5011910;28;20659;-70
2022/04/24 00:46:34;;;;;;;10.40;4.00;;;;;;;16.03;71.60;98991.16;5011704;28;20209;-70
2022/04/24 00:49:00;;;;;;;7.80;4.10;;;;;;;16.02;72.25;98979.63;5013022;28;20248;-68
2022/04/24 00:51:27;;;;;;;4.90;4.47;;;;;;;16.04;72.48;98984.75;5012349;28;20580;-69
2022/04/24 00:53:55;;;;;;;4.80;3.83;;;;;;;16.01;72.85;98982.56;5012148;28;20194;-69
2022/04/24 00:56:24;;;;;;;6.73;4.17;;;;;;;15.98;72.29;98987.59;5012723;28;20202;-69
2022/04/24 00:58:52;;;;;;;8.33;3.87;;;;;;;15.93;71.88;98995.53;5016078;28;20189;-70
2022/04/24 01:01:18;;;;;;;7.67;3.97;;;;;;;15.86;71.86;98987.66;5015480;28;20730;-70
2022/04/24 01:03:45;;;;;;;5.63;3.40;;;;;;;15.61;71.35;98990.69;5015821;28;20198;-69
2022/04/24 01:06:12;;;;;;;4.80;3.23;;;;;;;15.46;72.04;98994.97;5015759;28;20280;-70
2022/04/24 01:08:38;;;;;;;3.20;2.90;;;;;;;15.45;72.07;98996.81;5015498;28;20225;-70
2022/04/24 01:11:05;;;;;;;6.60;3.50;;;;;;;15.54;72.02;98997.25;5015436;28;20253;-70
2022/04/24 01:13:32;;;;;;;6.57;3.93;;;;;;;15.59;71.76;99003.53;5015424;28;20252;-70
2022/04/24 01:16:00;;;;;;;6.03;3.07;;;;;;;15.61;72.14;99004.09;5015057;28;20233;-69
2022/04/24 01:18:27;;;;;;;10.57;3.20;;;;;;;15.65;71.78;99007.09;5015509;28;20190;-69
2022/04/24 01:20:55;;;;;;;6.53;3.20;;;;;;;15.63;73.06;98999.31;5015587;28;20225;-69
2022/04/24 01:23:22;;;;;;;5.43;3.33;;;;;;;15.61;72.83;98998.72;5015193;28;20568;-69
2022/04/24 01:25:49;;;;;;;3.80;3.00;;;;;;;15.62;72.84;98997.69;5015089;28;20272;-69
2022/04/24 01:28:15;;;;;;;5.23;3.07;;;;;;;15.62;72.64;99000.38;5015159;28;20194;-70
2022/04/24 01:30:42;;;;;;;5.57;2.93;;;;;;;15.63;72.15;98999.31;5014878;28;20753;-69
2022/04/24 01:33:09;;;;;;;5.10;3.53;;;;;;;15.60;72.61;99005.13;5015043;28;20671;-69
2022/04/24 01:35:35;;;;;;;3.43;3.13;;;;;;;15.49;72.73;99000.63;5015326;28;20202;-69
2022/04/24 01:38:03;;;;;;;4.17;3.77;;;;;;;15.44;73.19;98999.75;5015771;28;20260;-69
2022/04/24 01:40:30;;;;;;;4.13;3.40;;;;;;;15.31;73.01;99005.34;5015406;28;20202;-69
2022/04/24 01:42:57;;;;;;;5.37;3.70;;;;;;;15.25;73.53;99009.81;5015184;28;20190;-68
2022/04/24 01:45:23;;;;;;;4.67;3.63;;;;;;;15.34;73.63;99011.06;5014971;28;20194;-68
2022/04/24 01:47:50;;;;;;;4.50;3.73;;;;;;;15.38;73.16;99014.91;5015031;28;20257;-69
2022/04/24 01:50:17;;;;;;;4.13;3.70;;;;;;;15.45;73.40;99006.72;5015011;28;20248;-68
2022/04/24 01:52:43;;;;;;;9.17;4.27;;;;;;;15.50;73.49;99013.00;5014662;28;20194;-69
2022/04/24 01:55:11;;;;;;;4.43;3.73;;;;;;;15.52;73.84;99013.56;5014615;28;20325;-69
2022/04/24 01:57:38;;;;;;;6.93;3.93;;;;;;;15.55;73.87;99017.63;5015701;28;20237;-70
2022/04/24 02:00:06;;;;;;;5.23;3.63;;;;;;;15.57;73.57;99019.00;5014363;28;20668;-71
2022/04/24 02:02:32;;;;;;;7.17;4.03;;;;;;;15.58;74.06;99019.81;5014440;28;20660;-69
2022/04/24 02:04:59;;;;;;;4.60;4.20;;;;;;;15.58;74.24;99012.63;5014377;28;20700;-69
2022/04/24 02:07:26;;;;;;;5.03;4.03;;;;;;;15.58;74.23;99022.50;5014875;28;20590;-69
2022/04/24 02:09:53;;;;;;;7.10;3.80;;;;;;;15.54;74.31;99016.81;5013676;28;20256;-69
2022/04/24 02:12:21;;;;;;;6.90;4.20;;;;;;;15.49;74.78;99014.03;5014285;28;20198;-69
2022/04/24 02:14:47;;;;;;;3.87;3.57;;;;;;;15.47;74.31;99018.81;5014335;28;20194;-70
2022/04/24 02:17:14;;;;;;;6.83;4.63;;;;;;;15.45;75.09;99018.22;5014465;28;20190;-70
2022/04/24 02:19:41;;;;;;;6.67;4.23;;;;;;;15.40;75.37;99020.81;5014422;28;20198;-70
2022/04/24 02:22:07;;;;;;;8.13;4.13;;;;;;;15.37;75.43;99015.97;5014306;28;20660;-70
2022/04/24 02:24:34;;;;;;;7.03;4.30;;;;;;;15.34;75.58;99024.47;5014364;28;20190;-69
2022/04/24 02:27:01;;;;;;;9.40;4.37;;;;;;;15.31;75.52;99021.38;5014264;28;20217;-69
2022/04/24 02:29:29;;;;;;;4.50;4.07;;;;;;;15.28;76.27;99028.03;5014202;28;20252;-69
2022/04/24 02:31:56;;;;;;;7.43;5.03;;;;;;;15.24;76.42;99026.88;5013764;28;20244;-70
2022/04/24 02:34:23;;;;;;;7.33;4.50;;;;;;;15.18;76.21;99029.69;5014679;28;20216;-69
2022/04/24 02:36:50;;;;;;;5.57;4.17;;;;;;;15.05;77.04;99044.16;5014150;28;20248;-69
2022/04/24 02:39:16;;;;;;;4.57;4.17;;;;;;;14.94;77.73;99031.59;5014311;28;20198;-69
2022/04/24 02:41:43;;;;;;;6.63;4.60;;;;;;;14.91;76.90;99037.41;5014037;28;20575;-69
2022/04/24 02:44:10;;;;;;;7.17;4.60;;;;;;;14.87;77.51;99038.13;5013979;28;20198;-68
2022/04/24 02:46:38;;;;;;;6.43;4.40;;;;;;;14.82;77.53;99038.84;5013772;28;20287;-69
2022/04/24 02:49:05;;;;;;;4.97;4.33;;;;;;;14.84;78.02;99042.09;5013939;28;20190;-70
2022/04/24 02:51:31;;;;;;;10.93;4.77;;;;;;;14.85;78.23;99043.72;5013533;28;20190;-70
2022/04/24 02:53:58;;;;;;;7.67;4.60;;;;;;;14.83;78.48;99045.78;5013424;28;20233;-70
2022/04/24 02:56:24;;;;;;;5.93;4.17;;;;;;;14.83;78.20;99045.78;5013395;28;20742;-70
2022/04/24 02:58:51;;;;;;;6.67;4.90;;;;;;;14.76;78.64;99037.09;5013406;28;20668;-69
2022/04/24 03:01:18;;;;;;;6.17;5.30;;;;;;;14.79;79.19;99054.53;5013225;28;20668;-69
2022/04/24 03:03:46;;;;;;;9.40;4.07;;;;;;;14.75;79.36;99061.41;5013365;28;20197;-69
2022/04/24 03:06:13;;;;;;;5.83;4.20;;;;;;;14.70;79.03;99064.75;5013202;28;20742;-69
2022/04/24 03:08:40;;;;;;;7.97;4.53;;;;;;;14.65;78.64;99064.66;5014381;28;20194;-69
2022/04/24 03:11:07;;;;;;;7.30;4.13;;;;;;;14.61;79.55;99074.19;5013808;28;20244;-69
2022/04/24 03:13:34;;;;;;;6.03;4.83;;;;;;;14.60;79.56;99071.72;5013097;28;20197;-69
2022/04/24 03:16:00;;;;;;;5.27;4.40;;;;;;;14.57;79.80;99075.69;5013232;28;20727;-69
2022/04/24 03:18:28;;;;;;;5.77;4.50;;;;;;;14.55;80.29;99077.75;5013653;28;20193;-69
2022/04/24 03:20:56;;;;;;;5.13;4.73;;;;;;;14.54;80.07;99086.81;5012078;28;20190;-69
2022/04/24 03:23:23;;;;;;;6.77;4.43;;;;;;;14.50;80.43;99085.66;5013361;28;20190;-68
2022/04/24 03:25:50;;;;;;;7.67;5.17;;;;;;;14.48;80.49;99090.44;5013263;28;20255;-68
2022/04/24 03:28:17;;;;;;;6.43;4.33;;;;;;;14.45;81.04;99090.91;5013195;28;20236;-68
2022/04/24 03:30:44;;;;;;;5.37;4.67;;;;;;;14.42;81.49;99091.34;5012804;28;20190;-68
2022/04/24 03:33:11;;;;;;;5.83;4.23;;;;;;;14.35;81.96;99090.66;5013150;28;20194;-68
2022/04/24 03:35:38;;;;;;;5.90;4.53;;;;;;;14.34;82.21;99097.03;5012715;28;20198;-68
2022/04/24 03:38:07;;;;;;;7.13;4.80;;;;;;;14.32;82.42;99106.31;5012735;28;20741;-68
2022/04/24 03:40:34;;;;;;;6.37;5.27;;;;;;;14.30;81.41;99108.41;5012666;28;20585;-68
2022/04/24 03:43:01;;;;;;;9.50;5.00;;;;;;;14.26;82.12;99108.03;5012675;28;20190;-68
2022/04/24 03:45:28;;;;;;;5.47;4.83;;;;;;;14.33;82.71;99114.09;5012540;28;20202;-68
2022/04/24 03:47:54;;;;;;;7.03;4.80;;;;;;;14.49;82.22;99113.44;5012787;28;20283;-69
2022/04/24 03:50:21;;;;;;;5.63;5.20;;;;;;;14.69;81.32;99113.94;5012619;28;20253;-68
2022/04/24 03:52:48;;;;;;;7.70;5.40;;;;;;;14.85;79.97;99118.59;5012350;28;20229;-69
2022/04/24 03:55:16;;;;;;;14.13;5.33;;;;;;;15.05;78.48;99124.41;5012530;28;20256;-69
2022/04/24 03:57:43;;;;;;;6.73;4.73;;;;;;;15.24;78.97;99123.22;5012731;28;20276;-68
2022/04/24 04:00:10;;;;;;;5.27;4.97;;;;;;;15.66;78.28;99129.22;5012562;28;20198;-68
2022/04/24 04:02:43;;;;;;;6.70;4.67;;;;;;;16.09;76.16;99128.72;5012641;28;20256;-69
2022/04/24 04:05:10;;;;;;;6.33;5.03;;;;;;;16.53;74.28;99133.28;5013469;28;20253;-69
2022/04/24 04:07:37;;;;;;;6.07;4.83;;;;;;;17.01;71.76;99141.56;5013033;28;20221;-70
2022/04/24 04:10:04;;;;;;;11.33;5.10;;;;;;;17.54;70.01;99147.16;5012269;28;20193;-70
2022/04/24 04:12:32;;;;;;;6.80;4.60;;;;;;;18.01;67.75;99154.47;5012552;28;20198;-71
2022/04/24 04:15:01;;;;;;;7.87;4.80;;;;;;;18.41;64.77;99156.78;5011549;28;20252;-73
2022/04/24 04:17:28;;;;;;;9.93;5.00;;;;;;;18.91;63.98;99165.34;5012326;28;20272;-70
2022/04/24 04:19:54;;;;;;;14.70;5.27;;;;;;;19.28;62.16;99177.72;5011772;28;20248;-73
2022/04/24 04:22:21;;;;;;;12.87;6.07;;;;;;;19.71;59.83;99177.44;5011453;28;20192;-72
2022/04/24 04:24:48;;;;;;;14.60;5.57;;;;;;;20.18;58.45;99177.41;5011941;28;20258;-71
2022/04/24 04:27:14;;;;;;;12.67;5.53;;;;;;;20.67;56.55;99186.69;5012324;28;20219;-71
2022/04/24 04:29:42;;;;;;;8.23;4.83;;;;;;;20.90;55.17;99194.22;5010604;28;20272;-73
2022/04/24 04:32:09;;;;;;;5.37;4.87;;;;;;;21.21;54.20;99187.78;5011510;28;20252;-72
2022/04/24 04:34:36;;;;;;;7.43;5.23;;;;;;;21.67;52.31;99189.31;5014392;28;20279;-73
2022/04/24 04:37:02;;;;;;;6.73;4.70;;;;;;;21.95;50.19;99193.28;5014458;28;20201;-73
2022/04/24 04:39:29;;;;;;;11.13;5.73;;;;;;;22.09;50.34;99189.69;5014411;28;20260;-73
2022/04/24 04:41:56;;;;;;;7.53;4.57;;;;;;;22.41;49.12;99192.78;5014277;28;20210;-72
2022/04/24 04:44:23;;;;;;;5.27;2.67;;;;;;;22.92;58.67;99175.16;5014747;28;20193;-77
2022/04/24 04:46:51;;;;;;;5.37;4.53;;;;;;;23.50;49.89;99190.34;5015555;28;20225;-77
2022/04/24 04:49:18;;;;;;;12.93;7.10;;;;;;;24.13;47.17;99185.59;5013654;28;20194;-77
2022/04/24 04:51:44;;;;;;;9.10;5.13;;;;;;;24.88;47.13;99188.00;5015708;28;20257;-77
2022/04/24 04:54:11;;;;;;;8.07;5.10;;;;;;;25.72;42.61;99194.19;5014912;28;20196;-79
2022/04/24 04:56:38;;;;;;;6.63;4.80;;;;;;;26.28;39.95;99192.78;5014297;28;20733;-83
2022/04/24 04:59:05;;;;;;;7.50;4.80;;;;;;;26.75;40.02;99197.72;5015114;28;20244;-77
2022/04/24 05:01:31;;;;;;;7.40;5.07;;;;;;;26.46;37.82;99188.31;5015053;28;20221;-78
2022/04/24 05:03:59;;;;;;;8.33;4.47;;;;;;;26.77;37.96;99194.69;5014906;28;20198;-77
2022/04/24 05:06:26;;;;;;;10.60;5.47;;;;;;;27.34;36.67;99191.91;5014589;28;20255;-73
2022/04/24 05:08:53;;;;;;;6.47;4.47;;;;;;;27.96;34.98;99189.97;5013246;28;20315;-72
2022/04/24 05:11:19;;;;;;;5.03;4.50;;;;;;;28.11;33.19;99184.88;5015482;28;20276;-74
2022/04/24 05:13:46;;;;;;;7.90;4.77;;;;;;;27.59;34.53;99190.44;5015374;28;20260;-74
2022/04/24 05:16:13;;;;;;;9.57;4.23;;;;;;;27.69;34.54;99185.50;5014387;28;20225;-76
2022/04/24 05:18:39;;;;;;;5.50;4.37;;;;;;;28.11;34.66;99184.06;5013726;28;20213;-75
2022/04/24 05:21:07;;;;;;;9.03;4.50;;;;;;;28.65;33.39;99183.53;5013412;28;20252;-73
2022/04/24 05:23:34;;;;;;;7.50;3.87;;;;;;;29.36;32.52;99185.59;5013591;28;20194;-74
2022/04/24 05:26:01;;;;;;;8.37;4.93;;;;;;;29.23;30.97;99183.81;5013524;28;20264;-73
2022/04/24 05:28:27;;;;;;;5.43;4.27;;;;;;;29.35;30.29;99183.97;5013593;28;20226;-75
2022/04/24 05:30:55;;;;;;;6.63;3.63;;;;;;;29.98;30.30;99180.38;5013239;28;20194;-74
2022/04/24 05:33:22;;;;;;;5.70;3.97;;;;;;;29.82;31.13;99174.66;5014264;28;20281;-75
2022/04/24 05:35:49;;;;;;;6.47;4.10;;;;;;;29.68;29.44;99179.53;5013632;28;20198;-74
2022/04/24 05:38:18;;;;;;;6.10;3.73;;;;;;;29.07;30.17;99177.25;5014117;28;20284;-75
2022/04/24 05:40:45;;;;;;;5.37;3.47;;;;;;;28.80;31.34;99167.47;5013466;28;20722;-76
2022/04/24 05:43:12;;;;;;;3.90;3.63;;;;;;;28.54;30.87;99174.06;5012667;28;20264;-74
2022/04/24 05:45:38;;;;;;;6.27;3.03;;;;;;;28.29;33.43;99172.03;5013549;28;20808;-75
2022/04/24 05:48:06;;;;;;;8.90;3.60;;;;;;;27.73;33.66;99169.31;5013763;28;20225;-79
2022/04/24 05:50:33;;;;;;;3.40;3.20;;;;;;;27.62;32.94;99167.97;5014067;28;20624;-78
2022/04/24 05:53:00;;;;;;;4.40;3.57;;;;;;;27.97;32.39;99175.22;5014332;28;20289;-80
2022/04/24 05:55:29;;;;;;;4.10;3.10;;;;;;;27.64;33.67;99171.22;5013896;28;20570;-76
2022/04/24 05:57:55;;;;;;;6.30;3.60;;;;;;;28.32;31.92;99176.88;5014089;28;20734;-74
2022/04/24 06:00:23;;;;;;;4.67;2.90;;;;;;;28.50;31.19;99184.03;5014122;28;20194;-72
2022/04/24 06:02:50;;;;;;;4.67;3.17;;;;;;;28.02;32.09;99177.78;5010932;28;20198;-75
2022/04/24 06:05:16;;;;;;;4.60;3.50;;;;;;;27.55;32.89;99178.53;5014070;28;20226;-72
2022/04/24 06:07:43;;;;;;;3.50;3.13;;;;;;;27.55;33.68;99178.53;5013991;28;20272;-73
2022/04/24 06:10:11;;;;;;;5.77;2.80;;;;;;;27.44;33.01;99171.75;5014025;28;20217;-71
2022/04/24 06:12:46;;;;;;;3.30;3.00;;;;;;;27.27;33.70;99177.13;5014303;28;20190;-71
2022/04/24 06:15:15;;;;;;;3.37;3.03;;;;;;;27.32;33.05;99185.16;5012431;28;20272;-71
2022/04/24 06:17:43;;;;;;;7.87;3.17;;;;;;;27.16;33.96;99175.72;5014112;28;20608;-72
2022/04/24 06:20:10;;;;;;;4.67;2.90;;;;;;;27.38;33.49;99173.00;5014827;28;20257;-69
2022/04/24 06:22:43;;;;;;;4.17;2.73;;;;;;;27.42;33.70;99172.06;5013961;28;20260;-68
2022/04/24 06:25:10;;;;;;;3.13;2.80;;;;;;;27.72;33.68;99176.69;5013991;28;20268;-67
2022/04/24 06:27:36;;;;;;;3.10;2.50;;;;;;;27.10;34.55;99163.31;5013900;28;20258;-68
2022/04/24 06:30:05;;;;;;;3.23;2.93;;;;;;;26.99;34.46;99165.50;5013661;28;20664;-69
2022/04/24 06:32:34;;;;;;;7.17;3.07;;;;;;;26.79;35.29;99170.66;5013180;28;20256;-69
2022/04/24 06:35:04;;;;;;;4.93;2.73;;;;;;;27.04;35.53;99172.75;5012463;28;20202;-68
2022/04/24 06:37:30;;;;;;;3.80;3.00;;;;;;;27.55;34.90;99178.53;5010063;28;20206;-68
2022/04/24 06:39:57;;;;;;;7.07;2.50;;;;;;;28.06;33.89;99178.75;5011703;28;20632;-68
2022/04/24 06:42:24;;;;;;;7.40;4.17;;;;;;;27.98;33.85;99171.34;5011246;28;20194;-67
2022/04/24 06:44:50;;;;;;;2.90;2.70;;;;;;;27.71;34.27;99177.00;5010985;28;20194;-68
2022/04/24 06:47:18;;;;;;;5.03;2.70;;;;;;;27.56;34.36;99174.69;5011687;28;20225;-67
2022/04/24 06:49:45;;;;;;;5.63;3.00;;;;;;;27.66;35.27;99171.69;5010740;28;20248;-68
2022/04/24 06:52:12;;;;;;;5.07;3.00;;;;;;;27.85;34.90;99166.81;5010782;28;20194;-67
2022/04/24 06:54:38;;;;;;;5.00;3.10;;;;;;;27.80;34.55;99169.63;5010340;28;20221;-67
2022/04/24 06:57:05;;;;;;;11.53;4.03;;;;;;;27.57;35.57;99165.38;5011108;28;20202;-67
2022/04/24 06:59:32;;;;;;;7.33;3.57;;;;;;;27.69;34.88;99173.78;5011049;28;20202;-68
2022/04/24 07:01:59;;;;;;;6.27;3.13;;;;;;;27.87;35.45;99170.03;5011776;28;20198;-68
2022/04/24 07:04:27;;;;;;;3.40;3.10;;;;;;;27.99;35.18;99164.75;5012717;28;20209;-68
2022/04/24 07:06:53;;;;;;;3.47;3.17;;;;;;;27.77;35.68;99159.38;5013150;28;20190;-68
2022/04/24 07:09:20;;;;;;;4.97;2.90;;;;;;;27.70;35.81;99164.47;5012706;28;20226;-68
2022/04/24 07:11:47;;;;;;;6.03;2.87;;;;;;;28.05;36.00;99160.78;5012737;28;20256;-68
2022/04/24 07:14:14;;;;;;;8.67;3.00;;;;;;;27.97;36.10;99164.28;5013263;28;20194;-68
2022/04/24 07:16:41;;;;;;;3.43;2.83;;;;;;;27.97;36.25;99164.28;5013113;28;20844;-68
2022/04/24 07:19:08;;;;;;;3.30;2.97;;;;;;;27.76;36.20;99166.75;5012661;28;20592;-68
2022/04/24 07:21:36;;;;;;;4.23;2.73;;;;;;;27.80;37.00;99161.44;5012834;28;20209;-68
2022/04/24 07:24:03;;;;;;;8.80;3.13;;;;;;;28.04;35.70;99170.06;5012345;28;20190;-68
2022/04/24 07:26:30;;;;;;;4.60;3.10;;;;;;;28.08;35.95;99160.13;5012718;28;20196;-68
2022/04/24 07:28:57;;;;;;;5.43;3.17;;;;;;;28.18;34.58;99159.84;5012438;28;20221;-68
2022/04/24 07:31:23;;;;;;;4.97;3.13;;;;;;;28.40;34.25;99162.41;5012556;28;20734;-68
2022/04/24 07:33:50;;;;;;;3.27;2.97;;;;;;;28.37;34.56;99168.53;5012715;28;20252;-68
2022/04/24 07:36:17;;;;;;;6.30;3.50;;;;;;;28.36;34.25;99166.91;5012544;28;20194;-68
2022/04/24 07:38:45;;;;;;;6.33;2.83;;;;;;;28.10;34.50;99166.09;5012346;28;20309;-68
2022/04/24 07:41:12;;;;;;;4.17;2.80;;;;;;;28.01;35.19;99162.53;5013187;28;20256;-67
2022/04/24 07:43:38;;;;;;;3.27;2.83;;;;;;;28.13;35.02;99162.72;5012766;28;20190;-68
2022/04/24 07:46:05;;;;;;;7.07;2.60;;;;;;;28.53;34.11;99162.31;5012429;28;20225;-68
2022/04/24 07:48:32;;;;;;;4.43;3.13;;;;;;;28.46;33.48;99161.97;5012315;28;20733;-68
2022/04/24 07:50:58;;;;;;;3.67;2.70;;;;;;;28.57;33.98;99152.34;5012096;28;20193;-68
2022/04/24 07:53:25;;;;;;;4.90;2.60;;;;;;;28.80;33.76;99161.19;5011829;28;20660;-68
2022/04/24 07:55:53;;;;;;;4.30;2.97;;;;;;;28.92;33.05;99166.81;5012172;28;20194;-68
2022/04/24 07:58:20;;;;;;;3.97;2.90;;;;;;;29.09;31.98;99158.59;5012024;28;20197;-68
2022/04/24 08:00:47;;;;;;;4.17;3.00;;;;;;;29.22;31.67;99156.81;5011096;28;20667;-68
2022/04/24 08:03:16;;;;;;;5.93;3.00;;;;;;;29.42;31.40;99145.94;5011983;28;20200;-68
2022/04/24 08:05:45;;;;;;;3.77;2.87;;;;;;;29.72;30.96;99144.88;5011765;28;20248;-68
2022/04/24 08:08:14;;;;;;;6.03;2.97;;;;;;;29.80;30.20;99151.47;5011619;28;20271;-67
2022/04/24 08:10:43;;;;;;;3.87;2.80;;;;;;;29.65;30.49;99144.59;5011971;28;20221;-68
2022/04/24 08:13:11;;;;;;;3.07;2.80;;;;;;;29.82;30.57;99130.00;5011444;28;20198;-68
2022/04/24 08:15:38;;;;;;;3.33;3.10;;;;;;;29.93;30.58;99134.78;5011404;28;20233;-68
2022/04/24 08:18:06;;;;;;;5.37;3.20;;;;;;;29.96;30.33;99128.63;5012583;28;20202;-67
2022/04/24 08:20:35;;;;;;;4.60;4.20;;;;;;;30.11;30.65;99127.25;5011326;28;20198;-67
2022/04/24 08:23:03;;;;;;;10.87;3.53;;;;;;;30.25;29.96;99125.91;5011597;28;20285;-68
2022/04/24 08:25:33;;;;;;;6.17;3.00;;;;;;;30.45;30.16;99130.59;5011856;28;20193;-68
2022/04/24 08:28:00;;;;;;;4.87;2.80;;;;;;;30.71;29.34;99130.41;5011884;28;20296;-68
2022/04/24 08:30:28;;;;;;;5.27;3.10;;;;;;;30.83;28.88;99125.75;5011725;28;20195;-68
2022/04/24 08:32:55;;;;;;;7.67;3.03;;;;;;;30.68;28.56;99115.41;5011898;28;20668;-68
2022/04/24 08:35:22;;;;;;;7.57;3.10;;;;;;;30.63;28.72;99123.84;5011903;28;20198;-67
2022/04/24 08:37:49;;;;;;;6.07;2.80;;;;;;;30.63;29.35;99110.13;5011685;28;20194;-68
2022/04/24 08:40:18;;;;;;;6.03;3.07;;;;;;;30.61;29.25;99106.91;5011799;28;20190;-68
2022/04/24 08:42:45;;;;;;;7.77;3.33;;;;;;;30.73;29.00;99106.97;5011534;28;20253;-68
2022/04/24 08:45:14;;;;;;;3.70;3.27;;;;;;;30.69;28.71;99097.81;5011808;28;20225;-67
2022/04/24 08:47:42;;;;;;;6.33;3.23;;;;;;;30.21;30.49;99091.28;5011591;28;20198;-67
2022/04/24 08:50:10;;;;;;;9.67;3.50;;;;;;;30.28;29.93;99086.88;5011271;28;20190;-67
2022/04/24 08:52:38;;;;;;;5.47;3.37;;;;;;;30.29;29.60;99091.19;5011473;28;20225;-68
2022/04/24 08:55:05;;;;;;;12.10;5.50;;;;;;;30.12;30.52;99083.09;5011626;28;20245;-68
2022/04/24 08:57:32;;;;;;;5.30;3.53;;;;;;;29.94;30.20;99065.19;5011791;28;20190;-68
2022/04/24 09:00:00;;;;;;;4.83;2.90;;;;;;;30.05;29.94;99071.06;5011645;28;20260;-68
2022/04/24 09:02:27;;;;;;;5.30;3.00;;;;;;;30.02;29.80;99077.19;5011134;28;20225;-68
2022/04/24 09:04:55;;;;;;;5.40;3.50;;;;;;;29.87;30.91;99075.84;5011970;28;20257;-68
2022/04/24 09:07:24;;;;;;;6.70;3.10;;;;;;;29.96;30.81;99068.38;5011668;28;20225;-67
2022/04/24 09:09:53;;;;;;;6.03;3.47;;;;;;;29.90;31.01;99058.75;5011397;28;20280;-67
2022/04/24 09:12:24;;;;;;;7.87;3.43;;;;;;;30.20;30.18;99071.28;5012701;28;20277;-68
2022/04/24 09:14:52;;;;;;;7.03;3.13;;;;;;;30.34;30.21;99068.28;5012076;28;20221;-67
2022/04/24 09:17:20;;;;;;;8.83;4.70;;;;;;;30.47;30.23;99061.72;5011813;28;20652;-68
2022/04/24 09:19:47;;;;;;;13.07;6.40;;;;;;;30.37;30.40;99057.44;5015861;28;20193;-69
2022/04/24 09:22:16;;;;;;;6.10;3.10;;;;;;;30.45;30.27;99059.28;5015195;28;20267;-69
2022/04/24 09:24:44;;;;;;;7.10;3.43;;;;;;;30.62;29.51;99048.16;5015000;28;20252;-68
2022/04/24 09:27:12;;;;;;;6.97;4.00;;;;;;;30.73;29.56;99049.38;5015068;28;20190;-68
2022/04/24 09:29:40;;;;;;;7.80;5.30;;;;;;;30.79;29.90;99047.22;5014859;28;20699;-69
2022/04/24 09:32:12;;;;;;;6.27;3.63;;;;;;;30.27;29.91;99046.91;5014649;28;20644;-70
2022/04/24 09:34:40;;;;;;;7.37;3.17;;;;;;;30.19;30.55;99038.72;5015047;28;20682;-68
2022/04/24 09:37:09;;;;;;;6.77;3.00;;;;;;;30.10;31.22;99030.56;5014854;28;20198;-68
2022/04/24 09:39:38;;;;;;;7.43;3.40;;;;;;;29.79;32.11;99032.88;5014709;28;20587;-68
2022/04/24 09:42:07;;;;;;;6.60;3.13;;;;;;;30.08;31.89;99029.31;5015283;28;20281;-69
2022/04/24 09:44:41;;;;;;;7.33;3.27;;;;;;;30.01;31.47;99020.81;5014420;28;20195;-69
2022/04/24 09:47:08;;;;;;;5.90;2.93;;;;;;;30.19;31.20;99022.28;5015180;28;20198;-69
2022/04/24 09:49:37;;;;;;;8.50;3.47;;;;;;;30.31;31.50;99014.94;5014574;28;20643;-68
2022/04/24 09:52:10;;;;;;;9.50;3.97;;;;;;;30.30;31.72;99007.84;5014790;28;20198;-69
2022/04/24 09:54:39;;;;;;;9.23;3.80;;;;;;;30.30;31.42;99013.34;5015087;28;20248;-68
2022/04/24 09:57:08;;;;;;;5.33;3.17;;;;;;;30.18;31.33;98999.59;5014935;28;20190;-68
2022/04/24 09:59:36;;;;;;;9.63;3.80;;;;;;;30.08;32.08;98997.22;5014580;28;20217;-68
2022/04/24 10:02:04;;;;;;;8.27;3.77;;;;;;;30.16;32.70;99001.84;5014031;28;20683;-68
2022/04/24 10:04:31;;;;;;;4.10;3.20;;;;;;;30.06;32.61;98999.50;5013833;28;20194;-68
2022/04/24 10:06:58;;;;;;;7.97;3.23;;;;;;;29.74;32.63;98988.47;5014147;28;20253;-69
2022/04/24 10:09:27;;;;;;;7.87;3.30;;;;;;;29.85;32.84;98978.72;5014186;28;20361;-68
2022/04/24 10:11:56;;;;;;;5.13;3.50;;;;;;;30.00;32.30;98987.13;5014233;28;20218;-68
2022/04/24 10:14:23;;;;;;;4.10;2.87;;;;;;;29.98;33.02;98983.94;5013876;28;20194;-70
2022/04/24 10:17:26;;;;;;;6.37;3.53;;;;;;;29.58;32.55;98980.03;5013605;28;20234;-68
2022/04/24 10:20:19;;;;;;;7.37;3.27;;;;;;;29.59;33.09;98987.09;5013900;28;20738;-67
2022/04/24 10:22:49;;;;;;;13.40;4.83;;;;;;;29.45;33.23;98975.59;5014130;28;20272;-70
2022/04/24 10:25:16;;;;;;;6.53;3.37;;;;;;;29.48;33.07;98974.91;5014289;28;20205;-68
2022/04/24 10:27:46;;;;;;;6.50;3.10;;;;;;;29.49;32.90;98970.25;5014089;28;20198;-71
2022/04/24 10:30:19;;;;;;;6.20;2.93;;;;;;;29.41;33.41;98968.34;5013312;28;20230;-70
2022/04/24 10:32:48;;;;;;;9.93;3.67;;;;;;;29.19;34.55;98966.72;5013799;28;20248;-70
2022/04/24 10:35:17;;;;;;;7.03;4.40;;;;;;;29.05;34.62;98966.16;5013991;28;20200;-69
2022/04/24 10:37:44;;;;;;;5.97;3.50;;;;;;;28.93;34.16;98957.81;5013786;28;20225;-70
2022/04/24 10:40:17;;;;;;;5.07;2.90;;;;;;;28.78;34.66;98961.88;5013961;28;20197;-67
2022/04/24 10:42:45;;;;;;;7.80;2.97;;;;;;;28.66;34.67;98944.56;5014229;28;20194;-68
2022/04/24 10:45:14;;;;;;;8.23;3.00;;;;;;;28.74;34.97;98954.66;5013830;28;20198;-67
2022/04/24 10:47:52;;;;;;;5.17;2.80;;;;;;;28.66;34.92;98952.75;5013674;28;20194;-67
2022/04/24 10:50:22;;;;;;;6.43;2.60;;;;;;;28.70;35.04;98953.72;5013832;28;20701;-70
2022/04/24 10:52:52;;;;;;;8.93;2.70;;;;;;;28.77;34.93;98954.00;5013799;28;20268;-69
2022/04/24 10:55:23;;;;;;;9.17;3.63;;;;;;;28.93;35.19;98946.88;5013813;28;20201;-70
2022/04/24 10:57:57;;;;;;;11.63;3.40;;;;;;;28.88;35.60;98945.09;5013476;28;20728;-69
2022/04/24 11:00:32;;;;;;;7.93;2.97;;;;;;;28.68;36.01;98943.13;5013513;28;20198;-69
2022/04/24 11:03:06;;;;;;;5.73;2.87;;;;;;;28.65;35.95;98934.75;5014142;28;20242;-67
2022/04/24 11:05:37;;;;;;;7.00;3.10;;;;;;;28.77;35.97;98929.41;5013296;28;20658;-67
2022/04/24 11:08:05;;;;;;;9.37;3.97;;;;;;;28.90;36.25;98940.13;5013400;28;20660;-68
2022/04/24 11:10:40;;;;;;;12.40;3.13;;;;;;;28.89;35.21;98921.31;5013719;28;20218;-70
2022/04/24 11:13:11;;;;;;;8.53;3.63;;;;;;;28.75;37.17;98923.47;5013147;28;20756;-70
2022/04/24 11:15:44;;;;;;;9.80;3.40;;;;;;;28.66;36.17;98915.28;5012022;28;20222;-69
2022/04/24 11:18:22;;;;;;;9.63;3.20;;;;;;;28.73;36.38;98925.72;5011926;28;20196;-68
2022/04/24 11:20:57;;;;;;;11.30;3.40;;;;;;;28.25;37.64;98909.63;5013300;28;20189;-67
2022/04/24 11:23:26;;;;;;;10.27;3.60;;;;;;;28.46;37.01;98915.22;5012696;28;20652;-68
2022/04/24 11:25:54;;;;;;;8.73;3.30;;;;;;;28.37;36.56;98898.81;5013358;28;20233;-67
2022/04/24 11:28:34;;;;;;;8.23;3.17;;;;;;;28.46;35.99;98893.38;5013144;28;20194;-68
2022/04/24 11:31:09;;;;;;;9.03;3.33;;;;;;;28.54;36.63;98908.94;5013458;28;20571;-68
2022/04/24 11:33:36;;;;;;;11.77;3.30;;;;;;;28.37;36.25;98900.72;5012757;28;20188;-68
2022/04/24 11:36:04;;;;;;;12.23;2.90;;;;;;;28.33;35.71;98894.31;5012939;28;20194;-68